Time;durP1;ratioP1;P1;durP2;ratioP2;P2;SDS_P1;SDS_P2;PMS_P1;PMS_P2;Temp;Humidity;BMP_temperature;BMP_pressure;BME280_temperature;BME280_humidity;BME280_pressure;Samples;Min_cycle;Max_cycle;Signal;HPM_P1;HPM_P2
2022/05/31 00:01:09;;;;;;;;;;;;;;;20.24;44.03;101505.03;6161093;23;20359;-77
2022/05/31 00:03:34;;;;;;;;;;;;;;;20.23;43.85;101499.81;6110795;23;19919;-77
2022/05/31 00:06:00;;;;;;;;;;;;;;;20.22;44.12;101498.97;6133217;23;19938;-77
2022/05/31 00:08:25;;;;;;;;;;;;;;;20.23;44.10;101494.59;6132107;23;19983;-77
2022/05/31 00:10:50;;;;;;;;;;;;;;;20.23;44.11;101492.88;6132180;23;19912;-77
2022/05/31 00:13:16;;;;;;;;;;;;;;;20.23;44.08;101494.59;6158203;23;19921;-77
2022/05/31 00:15:41;;;;;;;;;;;;;;;20.22;44.03;101495.50;6158230;23;19909;-77
2022/05/31 00:18:08;;;;;;;;;;;;;;;20.22;44.24;101493.75;6158512;23;19908;-77
2022/05/31 00:20:33;;;;;;;;;;;;;;;20.20;44.12;101492.88;6132226;23;19964;-77
2022/05/31 00:22:59;;;;;;;;;;;;;;;20.22;44.09;101492.88;6132308;23;20244;-77
2022/05/31 00:25:26;;;;;;;;;;;;;;;20.21;44.09;101488.53;6132293;23;21458;-77
2022/05/31 00:27:51;;;;;;;;;;;;;;;20.21;44.20;101497.25;6134044;23;19955;-77
2022/05/31 00:30:16;;;;;;;;;;;;;;;20.21;44.26;101488.53;6110201;23;19912;-77
2022/05/31 00:32:44;;;;;;;;;;;;;;;20.20;44.31;101498.13;6134195;23;20241;-77
2022/05/31 00:35:20;;;;;;;;;;;;;;;20.20;44.12;101497.25;6133968;23;19908;-78
2022/05/31 00:37:45;;;;;;;;;;;;;;;20.19;44.25;101492.94;6160563;23;20253;-77
2022/05/31 00:40:12;;;;;;;;;;;;;;;20.19;44.14;101488.56;6160512;23;19913;-77
2022/05/31 00:42:48;;;;;;;;;;;;;;;20.20;44.14;101495.50;6134725;23;19908;-77
2022/05/31 00:45:14;;;;;;;;;;;;;;;20.19;44.31;101483.34;6135938;23;19940;-77
2022/05/31 00:47:39;;;;;;;;;;;;;;;20.19;44.25;101491.16;6132810;23;19919;-77
2022/05/31 00:50:10;;;;;;;;;;;;;;;20.19;44.35;101479.84;6108611;23;19913;-77
2022/05/31 00:52:37;;;;;;;;;;;;;;;20.18;44.26;101483.34;6133068;23;19909;-77
2022/05/31 00:55:06;;;;;;;;;;;;;;;20.18;44.37;101488.56;6133334;23;19955;-77
2022/05/31 00:57:33;;;;;;;;;;;;;;;20.16;44.33;101482.47;6132873;23;19908;-77
2022/05/31 01:00:03;;;;;;;;;;;;;;;20.16;44.21;101479.88;6133311;23;19919;-77
2022/05/31 01:02:29;;;;;;;;;;;;;;;20.16;44.29;101487.72;6133457;23;20276;-77
2022/05/31 01:04:56;;;;;;;;;;;;;;;20.15;44.24;101476.41;6108789;23;19912;-77
2022/05/31 01:07:21;;;;;;;;;;;;;;;20.15;44.50;101476.41;6133332;23;20376;-77
2022/05/31 01:09:47;;;;;;;;;;;;;;;20.14;44.46;101478.16;6133442;23;19913;-76
2022/05/31 01:12:13;;;;;;;;;;;;;;;20.16;44.35;101475.50;6159271;23;19921;-77
2022/05/31 01:14:40;;;;;;;;;;;;;;;20.16;44.50;101477.25;6133310;23;20392;-77
2022/05/31 01:17:08;;;;;;;;;;;;;;;20.16;44.45;101477.25;6160728;23;19987;-77
2022/05/31 01:22:17;;;;;;;;;;;;;;;20.15;44.51;101479.00;6160748;23;19920;-77
2022/05/31 01:24:45;;;;;;;;;;;;;;;20.13;44.55;101480.78;6109906;23;19912;-77
2022/05/31 01:27:20;;;;;;;;;;;;;;;20.14;44.65;101478.16;6135209;23;19909;-78
2022/05/31 01:29:46;;;;;;;;;;;;;;;20.13;44.43;101473.78;6133533;23;19912;-77
2022/05/31 01:32:11;;;;;;;;;;;;;;;20.13;44.62;101480.78;6108199;23;20226;-77
2022/05/31 01:35:06;;;;;;;;;;;;;;;20.13;44.50;101481.63;6108443;23;19964;-77
2022/05/31 01:37:58;;;;;;;;;;;;;;;20.13;44.65;101489.47;6119961;23;20241;-76
2022/05/31 01:40:49;;;;;;;;;;;;;;;20.13;44.67;101478.16;6129891;23;19912;-77
2022/05/31 01:43:15;;;;;;;;;;;;;;;20.13;44.66;101479.03;6137776;23;19908;-77
2022/05/31 01:45:44;;;;;;;;;;;;;;;20.12;44.75;101479.91;6135171;23;19909;-77
2022/05/31 01:48:09;;;;;;;;;;;;;;;20.12;44.70;101477.31;6161241;23;19909;-77
2022/05/31 01:50:35;;;;;;;;;;;;;;;20.13;44.77;101475.56;6110792;23;20317;-77
2022/05/31 01:53:01;;;;;;;;;;;;;;;20.12;44.73;101474.69;6137165;23;19992;-77
2022/05/31 01:55:30;;;;;;;;;;;;;;;20.11;44.62;101480.78;6136168;23;19909;-77
2022/05/31 01:57:58;;;;;;;;;;;;;;;20.12;44.69;101477.31;6161577;23;19915;-77
2022/05/31 02:00:23;;;;;;;;;;;;;;;20.11;44.76;101470.34;6136738;23;19913;-77
2022/05/31 02:02:51;;;;;;;;;;;;;;;20.12;44.67;101474.69;6112083;23;19917;-77
2022/05/31 02:05:17;;;;;;;;;;;;;;;20.10;44.84;101470.38;6136889;23;19908;-77
2022/05/31 02:07:51;;;;;;;;;;;;;;;20.10;44.83;101470.38;6137046;23;20000;-76
2022/05/31 02:10:16;;;;;;;;;;;;;;;20.11;44.76;101472.09;6162336;23;19909;-76
2022/05/31 02:12:42;;;;;;;;;;;;;;;20.09;44.87;101474.69;6138020;23;20015;-77
2022/05/31 02:15:07;;;;;;;;;;;;;;;20.10;44.91;101470.38;6141369;23;19916;-76
2022/05/31 02:17:32;;;;;;;;;;;;;;;20.09;44.85;101471.22;6167603;23;19912;-76
2022/05/31 02:19:57;;;;;;;;;;;;;;;20.09;44.82;101469.47;6115975;23;20348;-77
2022/05/31 02:22:26;;;;;;;;;;;;;;;20.09;44.85;101468.63;6140747;23;20304;-77
2022/05/31 02:24:51;;;;;;;;;;;;;;;20.09;44.79;101463.38;6166526;23;19908;-77
2022/05/31 02:27:16;;;;;;;;;;;;;;;20.09;44.89;101461.63;6115150;23;19983;-77
2022/05/31 02:29:42;;;;;;;;;;;;;;;20.08;44.89;101464.28;6139289;23;19930;-77
2022/05/31 02:32:08;;;;;;;;;;;;;;;20.07;44.94;101460.78;6138863;23;19931;-77
2022/05/31 02:34:35;;;;;;;;;;;;;;;20.07;44.89;101466.00;6164139;23;19915;-77
2022/05/31 02:37:01;;;;;;;;;;;;;;;20.07;44.94;101462.53;6137564;23;19908;-77
2022/05/31 02:39:26;;;;;;;;;;;;;;;20.07;45.00;101462.53;6164023;23;19984;-77
2022/05/31 02:41:52;;;;;;;;;;;;;;;20.05;44.89;101452.09;6136724;23;19916;-76
2022/05/31 02:44:19;;;;;;;;;;;;;;;20.05;45.05;101456.47;6157432;23;19916;-77
2022/05/31 02:46:44;;;;;;;;;;;;;;;20.06;45.01;101460.81;6130999;23;19909;-77
2022/05/31 02:49:10;;;;;;;;;;;;;;;20.05;45.01;101452.09;6132403;23;19920;-77
2022/05/31 02:51:40;;;;;;;;;;;;;;;20.05;44.94;101457.31;6133977;23;19936;-77
2022/05/31 02:54:06;;;;;;;;;;;;;;;20.05;44.95;101462.53;6133033;23;19908;-77
2022/05/31 02:56:31;;;;;;;;;;;;;;;20.05;44.87;101459.06;6108490;23;20284;-76
2022/05/31 02:58:57;;;;;;;;;;;;;;;20.04;44.97;101455.59;6159371;23;19908;-77
2022/05/31 03:01:27;;;;;;;;;;;;;;;20.04;44.88;101458.22;6108622;23;19917;-77
2022/05/31 03:03:52;;;;;;;;;;;;;;;20.04;44.97;101459.97;6133887;23;19909;-77
2022/05/31 03:06:18;;;;;;;;;;;;;;;20.03;45.00;101459.09;6133642;23;19913;-77
2022/05/31 03:08:43;;;;;;;;;;;;;;;20.03;44.90;101459.09;6135120;23;19920;-77
2022/05/31 03:11:14;;;;;;;;;;;;;;;20.03;44.95;101455.63;6161831;23;19915;-77
2022/05/31 03:13:40;;;;;;;;;;;;;;;20.02;44.98;101454.75;6135042;23;19939;-77
2022/05/31 03:16:06;;;;;;;;;;;;;;;20.03;45.00;101458.22;6110986;23;19995;-78
2022/05/31 03:18:33;;;;;;;;;;;;;;;20.02;44.99;101452.13;6110913;23;19920;-77
2022/05/31 03:21:00;;;;;;;;;;;;;;;20.03;44.99;101453.00;6135058;23;20325;-77
2022/05/31 03:23:33;;;;;;;;;;;;;;;20.01;45.05;101450.41;6135268;23;19908;-77
2022/05/31 03:26:00;;;;;;;;;;;;;;;20.02;45.03;101440.84;6135133;23;19928;-77
2022/05/31 03:28:25;;;;;;;;;;;;;;;20.01;44.96;101447.81;6135277;23;19940;-77
2022/05/31 03:30:51;;;;;;;;;;;;;;;20.02;44.97;101451.28;6111337;23;20353;-78
2022/05/31 03:33:16;;;;;;;;;;;;;;;20.02;45.02;101453.91;6111016;23;19995;-77
2022/05/31 03:35:42;;;;;;;;;;;;;;;20.01;45.00;101445.19;6109111;23;19913;-77
2022/05/31 03:38:07;;;;;;;;;;;;;;;20.02;44.98;101449.53;6160036;23;19913;-77
2022/05/31 03:43:16;;;;;;;;;;;;;;;20.01;45.08;101445.19;6139126;23;19957;-77
2022/05/31 03:45:42;;;;;;;;;;;;;;;20.01;45.03;101433.84;6161963;23;20284;-77
2022/05/31 03:48:09;;;;;;;;;;;;;;;20.00;45.09;101446.06;6135718;23;19963;-77
2022/05/31 03:50:34;;;;;;;;;;;;;;;20.01;45.05;101442.59;6161679;23;20275;-77
2022/05/31 03:53:00;;;;;;;;;;;;;;;20.01;45.00;101442.59;6111574;23;19912;-77
2022/05/31 03:55:25;;;;;;;;;;;;;;;20.01;44.92;101439.09;6136296;23;20014;-77
2022/05/31 03:57:51;;;;;;;;;;;;;;;20.02;45.02;101443.44;6137547;23;20372;-77
2022/05/31 04:00:17;;;;;;;;;;;;;;;20.01;45.08;101442.59;6136823;23;19913;-77
2022/05/31 04:02:42;;;;;;;;;;;;;;;20.01;44.93;101436.47;6162874;23;19979;-77
2022/05/31 04:05:08;;;;;;;;;;;;;;;20.01;44.99;101434.75;6137013;23;19960;-77
2022/05/31 04:07:34;;;;;;;;;;;;;;;20.03;45.05;101437.31;6136669;23;19980;-77
2022/05/31 04:10:00;;;;;;;;;;;;;;;20.04;45.08;101433.84;6162904;23;19909;-77
2022/05/31 04:12:25;;;;;;;;;;;;;;;20.03;44.98;101435.56;6162306;23;19923;-77
2022/05/31 04:14:52;;;;;;;;;;;;;;;20.04;44.96;101431.22;6135784;23;20325;-77
2022/05/31 04:17:17;;;;;;;;;;;;;;;20.04;44.97;101432.09;6133759;23;19915;-79
2022/05/31 04:19:42;;;;;;;;;;;;;;;20.06;45.00;101432.09;6108987;23;19912;-77
2022/05/31 04:22:08;;;;;;;;;;;;;;;20.06;44.87;101432.09;6109448;23;19995;-77
2022/05/31 04:24:33;;;;;;;;;;;;;;;20.08;44.94;101435.56;6111035;23;19976;-76
2022/05/31 04:26:58;;;;;;;;;;;;;;;20.07;44.78;101426.81;6163208;23;19912;-77
2022/05/31 04:29:23;;;;;;;;;;;;;;;20.07;44.86;101429.44;6135858;23;19912;-77
2022/05/31 04:31:49;;;;;;;;;;;;;;;20.09;44.84;101430.28;6137601;23;19916;-78
2022/05/31 04:34:14;;;;;;;;;;;;;;;20.10;44.91;101428.56;6139088;23;19912;-78
2022/05/31 04:36:39;;;;;;;;;;;;;;;20.11;44.77;101430.28;6113741;23;19920;-78
2022/05/31 04:39:05;;;;;;;;;;;;;;;20.12;44.81;101429.38;6138334;23;19943;-78
2022/05/31 04:41:30;;;;;;;;;;;;;;;20.13;44.88;101432.00;6139819;23;19923;-78
2022/05/31 04:43:56;;;;;;;;;;;;;;;20.08;44.98;101431.19;6115087;23;19935;-79
2022/05/31 04:46:23;;;;;;;;;;;;;;;20.06;44.92;101424.25;6165613;23;19908;-79
2022/05/31 04:48:48;;;;;;;;;;;;;;;20.03;45.03;101424.25;6114244;23;19912;-78
2022/05/31 04:51:14;;;;;;;;;;;;;;;20.02;44.97;101423.41;6138353;23;19979;-78
2022/05/31 04:53:40;;;;;;;;;;;;;;;20.00;44.85;101430.38;6139373;23;19936;-78
2022/05/31 04:56:07;;;;;;;;;;;;;;;20.02;44.84;101425.16;6137769;23;19908;-78
2022/05/31 04:58:32;;;;;;;;;;;;;;;20.04;44.66;101421.63;6137643;23;19915;-78
2022/05/31 05:00:59;;;;;;;;;;;;;;;20.11;44.50;101419.81;6148474;23;19951;-79
2022/05/31 05:03:24;;;;;;;;;;;;;;;20.15;44.58;101411.06;6177976;23;19909;-80
2022/05/31 05:05:50;;;;;;;;;;;;;;;20.20;44.49;101411.03;6129547;23;19912;-81
2022/05/31 05:08:16;;;;;;;;;;;;;;;20.21;44.20;101417.97;6151948;23;19960;-81
2022/05/31 05:10:45;;;;;;;;;;;;;;;20.25;44.36;101422.28;6176649;23;19923;-78
2022/05/31 05:13:11;;;;;;;;;;;;;;;20.28;44.18;101419.66;6166399;23;20244;-78
2022/05/31 05:15:40;;;;;;;;;;;;;;;20.29;44.33;101418.75;6165295;23;19912;-80
2022/05/31 05:18:05;;;;;;;;;;;;;;;20.30;44.26;101410.91;6139303;23;19928;-78
2022/05/31 05:20:33;;;;;;;;;;;;;;;20.31;44.17;101414.38;6138711;23;19913;-79
2022/05/31 05:22:58;;;;;;;;;;;;;;;20.32;44.24;101405.66;6136702;23;19915;-78
2022/05/31 05:25:23;;;;;;;;;;;;;;;20.35;44.22;101416.06;6113951;23;19912;-78
2022/05/31 05:27:48;;;;;;;;;;;;;;;20.40;44.15;101408.16;6113930;23;19923;-79
2022/05/31 05:32:57;;;;;;;;;;;;;;;20.43;44.04;101411.63;6164403;23;19916;-78
2022/05/31 05:35:23;;;;;;;;;;;;;;;20.43;43.98;101401.16;6137761;23;19913;-78
2022/05/31 05:37:48;;;;;;;;;;;;;;;20.46;44.00;101411.56;6110315;23;19951;-78
2022/05/31 05:40:13;;;;;;;;;;;;;;;20.48;43.95;101401.97;6112217;23;20253;-79
2022/05/31 05:42:42;;;;;;;;;;;;;;;20.50;43.97;101405.41;6109831;23;19924;-80
2022/05/31 05:45:08;;;;;;;;;;;;;;;20.55;43.79;101407.97;6131137;23;19912;-78
2022/05/31 05:47:33;;;;;;;;;;;;;;;20.55;43.83;101406.22;6106557;23;19912;-78
2022/05/31 05:49:58;;;;;;;;;;;;;;;20.59;43.72;101401.84;6106676;23;19917;-78
2022/05/31 05:52:23;;;;;;;;;;;;;;;20.60;43.48;101400.97;6106452;23;19909;-79
2022/05/31 05:54:49;;;;;;;;;;;;;;;20.61;43.44;101407.06;6106865;23;19967;-78
2022/05/31 05:57:14;;;;;;;;;;;;;;;20.60;43.55;101403.59;6107952;23;19990;-78
2022/05/31 05:59:39;;;;;;;;;;;;;;;20.63;43.69;101406.16;6110293;23;19913;-78
2022/05/31 06:02:09;;;;;;;;;;;;;;;20.78;43.47;101399.00;6108477;23;20016;-78
2022/05/31 06:04:39;;;;;;;;;;;;;;;21.01;43.15;101409.13;6130711;23;19908;-78
2022/05/31 06:07:13;;;;;;;;;;;;;;;21.28;42.35;101406.09;6130369;23;20359;-78
2022/05/31 06:09:40;;;;;;;;;;;;;;;21.55;41.79;101399.53;6156806;23;20221;-79
2022/05/31 06:12:09;;;;;;;;;;;;;;;21.62;41.51;101400.31;6130506;23;19917;-78
2022/05/31 06:14:37;;;;;;;;;;;;;;;21.73;41.27;101405.34;6130503;23;20367;-82
2022/05/31 06:17:09;;;;;;;;;;;;;;;21.71;41.58;101404.50;6130434;23;19915;-79
2022/05/31 06:19:35;;;;;;;;;;;;;;;21.78;41.32;101398.28;6133205;23;20233;-79
2022/05/31 06:22:02;;;;;;;;;;;;;;;21.89;40.91;101398.97;6130206;23;19919;-79
2022/05/31 06:24:28;;;;;;;;;;;;;;;21.75;41.06;101400.94;6129909;23;19909;-79
2022/05/31 06:26:54;;;;;;;;;;;;;;;22.04;40.61;101389.09;6156654;23;19983;-78
2022/05/31 06:29:19;;;;;;;;;;;;;;;22.19;40.17;101392.25;6130584;23;20324;-79
2022/05/31 06:31:44;;;;;;;;;;;;;;;22.31;39.86;101392.94;6105993;23;19920;-79
2022/05/31 06:34:10;;;;;;;;;;;;;;;22.41;39.82;101391.84;6130481;23;19983;-79
2022/05/31 06:36:35;;;;;;;;;;;;;;;22.62;39.33;101387.88;6106299;23;19913;-79
2022/05/31 06:39:00;;;;;;;;;;;;;;;22.26;39.90;101393.03;6106056;23;19916;-79
2022/05/31 06:41:26;;;;;;;;;;;;;;;21.95;40.41;101393.59;6105943;23;19917;-79
2022/05/31 06:43:51;;;;;;;;;;;;;;;22.21;40.30;101402.72;6156641;23;19991;-78
2022/05/31 06:46:16;;;;;;;;;;;;;;;22.00;40.35;101395.28;6130612;23;19963;-79
2022/05/31 06:48:41;;;;;;;;;;;;;;;21.86;40.75;101396.41;6105920;23;20329;-78
2022/05/31 06:51:11;;;;;;;;;;;;;;;21.76;40.96;101393.06;6130320;23;19913;-78
2022/05/31 06:59:24;;;;;;;;;;;;;;;21.95;40.65;101396.22;6068872;23;19910;-78
2022/05/31 07:01:50;;;;;;;;;;;;;;;21.84;41.00;101390.31;6020875;23;19929;-79
2022/05/31 07:04:15;;;;;;;;;;;;;;;21.80;40.99;101393.91;6083756;23;19909;-79
2022/05/31 07:06:41;;;;;;;;;;;;;;;21.88;40.76;101393.72;6130673;23;19971;-79
2022/05/31 07:09:08;;;;;;;;;;;;;;;21.93;40.87;101394.53;6105972;23;19991;-78
2022/05/31 07:11:34;;;;;;;;;;;;;;;21.88;40.75;101393.72;6130297;23;20289;-79
2022/05/31 07:14:00;;;;;;;;;;;;;;;21.89;40.83;101388.47;6106326;23;19916;-79
2022/05/31 07:16:26;;;;;;;;;;;;;;;21.95;40.86;101387.50;6130479;23;19908;-78
2022/05/31 07:18:51;;;;;;;;;;;;;;;22.00;40.76;101383.03;6107662;23;20043;-78
2022/05/31 07:21:16;;;;;;;;;;;;;;;22.12;40.43;101381.91;6107215;23;19956;-79
2022/05/31 07:23:42;;;;;;;;;;;;;;;21.94;40.79;101389.25;6130349;23;19920;-78
2022/05/31 07:26:08;;;;;;;;;;;;;;;21.93;40.59;101390.16;6156449;23;19976;-78
2022/05/31 07:28:33;;;;;;;;;;;;;;;21.91;40.55;101384.06;6130256;23;19909;-78
2022/05/31 07:31:00;;;;;;;;;;;;;;;21.70;40.88;101379.22;6130314;23;19919;-78
2022/05/31 07:33:25;;;;;;;;;;;;;;;;;;6130604;23;19916;-78
2022/05/31 07:35:50;;;;;;;;;;;;;;;21.39;42.00;101382.34;6159162;23;19983;-78
2022/05/31 07:38:16;;;;;;;;;;;;;;;21.52;41.56;101388.28;6108426;23;19917;-79
2022/05/31 07:40:43;;;;;;;;;;;;;;;21.51;41.55;101381.28;6159759;23;19912;-80
2022/05/31 07:43:08;;;;;;;;;;;;;;;21.54;41.67;101381.25;6135790;23;19909;-78
2022/05/31 07:45:34;;;;;;;;;;;;;;;21.57;41.48;101382.06;6136680;23;19912;-80
2022/05/31 07:47:59;;;;;;;;;;;;;;;21.64;41.40;101377.56;6136571;23;20309;-77
2022/05/31 07:50:24;;;;;;;;;;;;;;;21.59;41.36;101375.94;6111567;23;19920;-78
2022/05/31 07:52:49;;;;;;;;;;;;;;;21.55;41.44;101380.34;6134041;23;20016;-78
2022/05/31 07:55:15;;;;;;;;;;;;;;;21.61;41.28;101375.03;6109340;23;19912;-78
2022/05/31 08:00:24;;;;;;;;;;;;;;;21.64;41.31;101374.09;6159635;23;19963;-78
2022/05/31 08:02:49;;;;;;;;;;;;;;;21.63;41.43;101369.75;6159797;23;20384;-78
2022/05/31 08:05:15;;;;;;;;;;;;;;;21.62;41.37;101365.41;6133460;23;20058;-78
2022/05/31 08:07:40;;;;;;;;;;;;;;;21.60;41.41;101364.56;6108672;23;19915;-78
2022/05/31 08:10:06;;;;;;;;;;;;;;;21.59;41.67;101366.31;6109241;23;20348;-78
2022/05/31 08:12:31;;;;;;;;;;;;;;;21.58;41.62;101372.47;6109517;23;19920;-78
2022/05/31 08:14:57;;;;;;;;;;;;;;;21.51;41.75;101370.81;6134663;23;19955;-78
2022/05/31 08:17:22;;;;;;;;;;;;;;;21.43;41.80;101370.13;6135427;23;20324;-78
2022/05/31 08:19:47;;;;;;;;;;;;;;;21.45;41.75;101371.81;6110277;23;19928;-78
2022/05/31 08:22:12;;;;;;;;;;;;;;;21.48;41.76;101366.50;6111009;23;19913;-77
2022/05/31 08:24:38;;;;;;;;;;;;;;;21.50;41.83;101369.97;6110326;23;19948;-79
2022/05/31 08:27:03;;;;;;;;;;;;;;;;;;6134150;23;19916;-78
2022/05/31 08:29:28;;;;;;;;;;;;;;;21.48;41.80;101371.75;6133346;23;19916;-78
2022/05/31 08:31:55;;;;;;;;;;;;;;;21.48;41.63;101371.75;6133550;23;19967;-78
2022/05/31 08:34:20;;;;;;;;;;;;;;;21.48;41.90;101371.75;6133721;23;20334;-78
2022/05/31 08:36:45;;;;;;;;;;;;;;;21.47;41.62;101363.91;6109237;23;19912;-79
2022/05/31 08:39:10;;;;;;;;;;;;;;;21.46;41.78;101363.06;6109771;23;20325;-78
2022/05/31 08:41:39;;;;;;;;;;;;;;;21.45;41.67;101361.34;6109469;23;19924;-78
2022/05/31 08:44:24;;;;;;;;;;;;;;;21.44;41.59;101358.75;6133289;23;19916;-78
2022/05/31 08:47:05;;;;;;;;;;;;;;;21.42;41.85;101365.75;6122218;23;19912;-78
2022/05/31 08:51:52;;;;;;;;;;;;;;;21.38;41.93;101362.28;6133653;23;20325;-78
2022/05/31 08:52:23;;;;;;;;;;;;;;;21.39;41.94;101363.16;6161173;23;19916;-78
2022/05/31 08:57:41;;;;;;;;;;;;;;;21.38;41.99;101359.66;6160905;23;19963;-78
2022/05/31 09:00:07;;;;;;;;;;;;;;;21.35;41.93;101360.59;6134280;23;19924;-78
2022/05/31 09:02:37;;;;;;;;;;;;;;;21.35;41.91;101350.13;6134126;23;19931;-78
2022/05/31 09:05:06;;;;;;;;;;;;;;;21.33;41.87;101354.50;6133918;23;19909;-78
2022/05/31 09:07:52;;;;;;;;;;;;;;;21.29;41.91;101354.59;6133766;23;19908;-78
2022/05/31 09:10:37;;;;;;;;;;;;;;;21.27;42.00;101352.00;6159426;23;19999;-78
2022/05/31 09:13:06;;;;;;;;;;;;;;;21.27;42.03;101356.38;6133173;23;20277;-78
2022/05/31 09:15:31;;;;;;;;;;;;;;;21.28;42.12;101355.50;6133770;23;19913;-78
2022/05/31 09:18:07;;;;;;;;;;;;;;;21.28;41.85;101353.72;6134064;23;19908;-78
2022/05/31 09:20:32;;;;;;;;;;;;;;;21.29;41.85;101352.81;6133945;23;19920;-78
2022/05/31 09:22:58;;;;;;;;;;;;;;;21.29;41.89;101355.44;6134355;23;19909;-78
2022/05/31 09:25:24;;;;;;;;;;;;;;;21.28;41.89;101350.25;6133524;23;19932;-78
2022/05/31 09:27:50;;;;;;;;;;;;;;;21.28;42.06;101345.88;6109841;23;19924;-79
2022/05/31 09:30:38;;;;;;;;;;;;;;;21.26;42.08;101341.56;6160705;23;20436;-78
2022/05/31 09:33:19;;;;;;;;;;;;;;;21.26;42.13;101349.41;6159909;23;20321;-78
2022/05/31 09:35:54;;;;;;;;;;;;;;;21.25;42.01;101348.56;6134107;23;19915;-78
2022/05/31 09:38:38;;;;;;;;;;;;;;;21.25;42.09;101347.69;6134184;23;19909;-77
2022/05/31 09:41:24;;;;;;;;;;;;;;;21.24;41.98;101341.59;6133664;23;19919;-78
2022/05/31 09:44:01;;;;;;;;;;;;;;;21.22;41.87;101339.88;6159203;23;19915;-78
2022/05/31 09:46:31;;;;;;;;;;;;;;;21.22;41.94;101347.75;6133739;23;19959;-78
2022/05/31 09:48:58;;;;;;;;;;;;;;;21.21;42.18;101338.16;6133743;23;20368;-78
2022/05/31 09:51:35;;;;;;;;;;;;;;;21.18;42.17;101344.28;6133564;23;19908;-78
2022/05/31 09:59:30;;;;;;;;;;;;;;;21.17;42.09;101330.34;6137582;23;19919;-78
2022/05/31 10:02:01;;;;;;;;;;;;;;;21.17;42.08;101325.13;6133259;23;20005;-78
2022/05/31 10:04:28;;;;;;;;;;;;;;;21.17;42.08;101332.97;6133441;23;19963;-78
2022/05/31 10:06:54;;;;;;;;;;;;;;;21.15;42.08;101323.44;6133291;23;19913;-78
2022/05/31 10:09:22;;;;;;;;;;;;;;;21.15;41.84;101328.66;6133225;23;19970;-78
2022/05/31 10:11:49;;;;;;;;;;;;;;;21.14;41.93;101322.56;6132477;23;20380;-78
2022/05/31 10:14:31;;;;;;;;;;;;;;;21.15;42.07;101321.66;6108816;23;19920;-78
2022/05/31 10:17:12;;;;;;;;;;;;;;;21.14;42.04;101325.19;6132098;23;19932;-78
2022/05/31 10:19:37;;;;;;;;;;;;;;;21.14;42.07;101324.28;6132297;23;19939;-78
2022/05/31 10:22:16;;;;;;;;;;;;;;;21.13;41.92;101328.69;6109062;23;19916;-79
2022/05/31 10:24:41;;;;;;;;;;;;;;;21.14;42.15;101321.69;6133587;23;19909;-77
2022/05/31 10:27:18;;;;;;;;;;;;;;;21.13;41.97;101323.44;6136467;23;19935;-78
2022/05/31 10:29:46;;;;;;;;;;;;;;;21.13;41.99;101323.44;6162511;23;20245;-78
2022/05/31 10:32:24;;;;;;;;;;;;;;;21.12;41.94;101321.72;6136438;23;19931;-78
2022/05/31 10:34:50;;;;;;;;;;;;;;;21.13;42.04;101322.59;6163153;23;19956;-79
2022/05/31 10:37:26;;;;;;;;;;;;;;;21.11;42.04;101319.97;6112254;23;19944;-78
2022/05/31 10:40:05;;;;;;;;;;;;;;;21.11;42.01;101325.22;6136596;23;19916;-78
2022/05/31 10:42:33;;;;;;;;;;;;;;;21.10;42.02;101320.88;6137857;23;19909;-78
2022/05/31 10:45:02;;;;;;;;;;;;;;;21.10;42.02;101320.88;6136842;23;20269;-78
2022/05/31 10:47:28;;;;;;;;;;;;;;;21.09;42.09;101319.16;6136319;23;19935;-78
2022/05/31 10:49:53;;;;;;;;;;;;;;;21.08;41.92;101320.03;6112319;23;20325;-78
2022/05/31 10:52:30;;;;;;;;;;;;;;;21.09;41.96;101321.75;6110955;23;19920;-78
2022/05/31 10:55:03;;;;;;;;;;;;;;;21.08;42.08;101319.19;6137006;23;19915;-78
2022/05/31 10:57:48;;;;;;;;;;;;;;;21.09;42.11;101318.28;6137373;23;19932;-78
2022/05/31 11:00:22;;;;;;;;;;;;;;;21.09;42.08;101318.28;6162554;23;19913;-78
2022/05/31 11:03:00;;;;;;;;;;;;;;;21.09;42.10;101323.53;6136417;23;19909;-78
2022/05/31 11:05:32;;;;;;;;;;;;;;;21.09;42.10;101318.28;6135224;23;19909;-78
2022/05/31 11:14:02;;;;;;;;;;;;;;;21.10;42.07;101328.75;6163026;23;19935;-78
2022/05/31 11:16:36;;;;;;;;;;;;;;;21.11;42.14;101335.69;6136802;23;19908;-78
2022/05/31 11:19:14;;;;;;;;;;;;;;;21.12;42.00;101326.06;6164621;23;19909;-78
2022/05/31 11:21:51;;;;;;;;;;;;;;;21.12;41.99;101324.34;6138070;23;19917;-78
2022/05/31 11:24:39;;;;;;;;;;;;;;;21.12;41.96;101324.34;6137634;23;19908;-78
2022/05/31 11:27:04;;;;;;;;;;;;;;;21.13;41.88;101328.69;6133577;23;19908;-78
2022/05/31 11:29:37;;;;;;;;;;;;;;;21.14;41.99;101327.81;6137021;23;19916;-78
2022/05/31 11:32:03;;;;;;;;;;;;;;;21.15;42.03;101328.66;6137453;23;20299;-78
2022/05/31 11:34:48;;;;;;;;;;;;;;;21.13;42.01;101326.06;6137675;23;19908;-78
2022/05/31 11:37:25;;;;;;;;;;;;;;;21.13;41.92;101335.66;6137292;23;19919;-78
2022/05/31 11:39:57;;;;;;;;;;;;;;;21.11;41.83;101322.59;6138182;23;19908;-78
2022/05/31 11:42:34;;;;;;;;;;;;;;;21.11;41.94;101324.38;6137464;23;19912;-79
2022/05/31 11:44:59;;;;;;;;;;;;;;;21.11;41.95;101327.84;6138373;23;19912;-78
2022/05/31 11:47:44;;;;;;;;;;;;;;;21.10;42.00;101333.09;6137971;23;19908;-79
2022/05/31 11:50:28;;;;;;;;;;;;;;;21.08;41.99;101338.38;6138334;23;20123;-79
2022/05/31 11:53:16;;;;;;;;;;;;;;;21.07;42.04;101343.63;6137301;23;20237;-78
2022/05/31 11:55:50;;;;;;;;;;;;;;;21.06;41.73;101341.91;6127663;23;19908;-78
2022/05/31 11:58:30;;;;;;;;;;;;;;;21.03;41.86;101342.78;6136693;23;19908;-78
2022/05/31 12:01:14;;;;;;;;;;;;;;;21.03;41.85;101342.78;6137086;23;19967;-78
2022/05/31 12:03:43;;;;;;;;;;;;;;;21.03;41.86;101341.94;6136933;23;19940;-78
2022/05/31 12:06:13;;;;;;;;;;;;;;;21.02;42.00;101335.84;6138441;23;20318;-78
2022/05/31 12:08:45;;;;;;;;;;;;;;;21.03;41.92;101336.69;6138992;23;20031;-78
2022/05/31 12:11:17;;;;;;;;;;;;;;;21.03;41.94;101341.94;6138600;23;19930;-79
2022/05/31 12:13:44;;;;;;;;;;;;;;;21.03;41.91;101334.09;6139254;23;19983;-78
2022/05/31 12:16:10;;;;;;;;;;;;;;;21.04;42.03;101327.97;6138383;23;19920;-78
2022/05/31 12:18:41;;;;;;;;;;;;;;;21.04;42.06;101328.84;6113635;23;19912;-78
2022/05/31 12:21:15;;;;;;;;;;;;;;;21.04;42.11;101330.59;6164645;23;19956;-78
2022/05/31 12:23:57;;;;;;;;;;;;;;;21.06;41.94;101334.06;6139496;23;19909;-78
2022/05/31 12:26:39;;;;;;;;;;;;;;;21.08;42.12;101329.66;6140159;23;19932;-78
2022/05/31 12:29:05;;;;;;;;;;;;;;;21.07;42.18;101341.84;6140818;23;19979;-78
2022/05/31 12:31:31;;;;;;;;;;;;;;;21.07;41.80;101328.78;6138690;23;20245;-78
2022/05/31 12:34:33;;;;;;;;;;;;;;;21.08;42.01;101325.28;6138885;23;19908;-78
2022/05/31 12:36:58;;;;;;;;;;;;;;;21.08;42.12;101327.91;6076780;23;19909;-78
2022/05/31 12:39:27;;;;;;;;;;;;;;;21.08;42.08;101333.13;6125297;23;19909;-78
2022/05/31 12:41:53;;;;;;;;;;;;;;;21.10;41.87;101330.47;6136318;23;19912;-78
2022/05/31 12:44:30;;;;;;;;;;;;;;;21.09;42.18;101328.75;6137151;23;19909;-78
2022/05/31 12:47:09;;;;;;;;;;;;;;;21.08;42.22;101330.53;6138209;23;20359;-78
2022/05/31 12:49:35;;;;;;;;;;;;;;;21.08;42.05;101335.75;6137546;23;19908;-78
2022/05/31 12:52:18;;;;;;;;;;;;;;;21.07;42.18;101333.16;6137526;23;20317;-79
2022/05/31 12:54:45;;;;;;;;;;;;;;;21.07;42.27;101331.38;6137472;23;20281;-78
2022/05/31 12:57:21;;;;;;;;;;;;;;;21.08;42.00;101337.50;6137684;23;19932;-78
2022/05/31 12:59:47;;;;;;;;;;;;;;;21.09;42.01;101331.38;6162760;23;19971;-78
2022/05/31 13:02:22;;;;;;;;;;;;;;;21.09;42.14;101334.84;6138324;23;19971;-78
2022/05/31 13:04:52;;;;;;;;;;;;;;;21.10;42.18;101331.34;6164335;23;20032;-78
2022/05/31 13:07:18;;;;;;;;;;;;;;;21.11;42.17;101332.22;6138502;23;19909;-78
2022/05/31 13:09:46;;;;;;;;;;;;;;;21.11;42.18;101334.84;6137579;23;19908;-78
2022/05/31 13:20:42;;;;;;;;;;;;;;;21.09;42.30;101337.47;6167730;23;19951;-78
2022/05/31 13:23:07;;;;;;;;;;;;;;;21.08;42.32;101332.28;6138938;23;19908;-78
2022/05/31 13:25:41;;;;;;;;;;;;;;;21.07;41.95;101338.38;6138681;23;19983;-78